Brooker, Florida
Current Conditions -  °F | °C
As of 9:53 AM on Saturday 22 Nov 2014 (Local Time) from KGNV Reporting Station
Overcast Overcast  
Wind Chill: 64°   Ceiling: 4000
Heat Index: 64°   Visibility: 10mi
Dew Point: 59°   Wind: 8mph
Humidity: 84%   Direction: 40°NE
Pressure: 30.32"   Gusts: NA
Location:  29.89°N, 82.33°W
Report Text: KGNV 221453Z 04007KT 10SM BKN040 BKN050 OVC085 18/15 A3032 RMK AO2 RAB33E52 SLP264 P0000 60000 T01780150 50009
Loading
Personal Weather Stations






























Interactive Weather Map New forecast layout! Learn more

10-Day Weather Forecast

Advertisements
Track Severe Weather on mobile